sensor_id;sensor_type;location;lat;lon;timestamp;P1;durP1;ratioP1;P2;durP2;ratioP2
16954;SDS011;8594;52.052;8.354;2024-02-26T00:01:50;2.60;;;2.30;;
16954;SDS011;8594;52.052;8.354;2024-02-26T00:04:17;3.33;;;2.20;;
16954;SDS011;8594;52.052;8.354;2024-02-26T00:06:44;4.33;;;2.40;;
16954;SDS011;8594;52.052;8.354;2024-02-26T00:09:11;5.23;;;2.67;;
16954;SDS011;8594;52.052;8.354;2024-02-26T00:11:37;5.53;;;2.50;;
16954;SDS011;8594;52.052;8.354;2024-02-26T00:14:04;4.10;;;2.90;;
16954;SDS011;8594;52.052;8.354;2024-02-26T00:16:31;3.17;;;2.40;;
16954;SDS011;8594;52.052;8.354;2024-02-26T00:18:59;4.53;;;2.60;;
16954;SDS011;8594;52.052;8.354;2024-02-26T00:21:26;3.53;;;2.40;;
16954;SDS011;8594;52.052;8.354;2024-02-26T00:23:52;3.80;;;2.60;;
16954;SDS011;8594;52.052;8.354;2024-02-26T00:26:19;3.23;;;2.40;;
16954;SDS011;8594;52.052;8.354;2024-02-26T00:28:46;2.90;;;2.60;;
16954;SDS011;8594;52.052;8.354;2024-02-26T00:31:13;3.30;;;2.23;;
16954;SDS011;8594;52.052;8.354;2024-02-26T00:33:40;3.00;;;2.60;;
16954;SDS011;8594;52.052;8.354;2024-02-26T00:36:08;3.13;;;2.20;;
16954;SDS011;8594;52.052;8.354;2024-02-26T00:38:35;3.73;;;2.40;;
16954;SDS011;8594;52.052;8.354;2024-02-26T00:41:02;2.63;;;2.40;;
16954;SDS011;8594;52.052;8.354;2024-02-26T00:43:29;4.13;;;2.27;;
16954;SDS011;8594;52.052;8.354;2024-02-26T00:45:55;3.70;;;2.60;;
16954;SDS011;8594;52.052;8.354;2024-02-26T00:48:22;3.10;;;2.33;;
16954;SDS011;8594;52.052;8.354;2024-02-26T00:50:50;3.73;;;2.00;;
16954;SDS011;8594;52.052;8.354;2024-02-26T00:53:18;2.23;;;2.00;;
16954;SDS011;8594;52.052;8.354;2024-02-26T00:55:45;3.37;;;2.20;;
16954;SDS011;8594;52.052;8.354;2024-02-26T00:58:12;3.77;;;2.10;;
16954;SDS011;8594;52.052;8.354;2024-02-26T01:00:38;5.50;;;2.33;;
16954;SDS011;8594;52.052;8.354;2024-02-26T01:03:05;2.93;;;1.83;;
16954;SDS011;8594;52.052;8.354;2024-02-26T01:05:32;3.77;;;2.30;;
16954;SDS011;8594;52.052;8.354;2024-02-26T01:07:58;2.47;;;1.90;;
16954;SDS011;8594;52.052;8.354;2024-02-26T01:10:26;4.17;;;2.10;;
16954;SDS011;8594;52.052;8.354;2024-02-26T01:12:53;4.80;;;2.33;;
16954;SDS011;8594;52.052;8.354;2024-02-26T01:15:20;2.50;;;2.00;;
16954;SDS011;8594;52.052;8.354;2024-02-26T01:17:48;2.50;;;1.80;;
16954;SDS011;8594;52.052;8.354;2024-02-26T01:20:14;2.83;;;1.97;;
16954;SDS011;8594;52.052;8.354;2024-02-26T01:22:41;3.40;;;1.80;;
16954;SDS011;8594;52.052;8.354;2024-02-26T01:25:08;4.30;;;1.70;;
16954;SDS011;8594;52.052;8.354;2024-02-26T01:27:37;4.33;;;2.20;;
16954;SDS011;8594;52.052;8.354;2024-02-26T01:30:06;3.17;;;2.00;;
16954;SDS011;8594;52.052;8.354;2024-02-26T01:32:34;3.37;;;2.07;;
16954;SDS011;8594;52.052;8.354;2024-02-26T01:35:01;4.43;;;2.20;;
16954;SDS011;8594;52.052;8.354;2024-02-26T01:37:30;4.17;;;2.17;;
16954;SDS011;8594;52.052;8.354;2024-02-26T01:39:57;3.53;;;2.57;;
16954;SDS011;8594;52.052;8.354;2024-02-26T01:42:23;2.73;;;2.20;;
16954;SDS011;8594;52.052;8.354;2024-02-26T01:44:51;3.40;;;2.40;;
16954;SDS011;8594;52.052;8.354;2024-02-26T01:47:18;4.70;;;2.70;;
16954;SDS011;8594;52.052;8.354;2024-02-26T01:49:45;10.33;;;3.20;;
16954;SDS011;8594;52.052;8.354;2024-02-26T01:52:12;7.47;;;2.90;;
16954;SDS011;8594;52.052;8.354;2024-02-26T01:54:39;5.80;;;3.30;;
16954;SDS011;8594;52.052;8.354;2024-02-26T01:57:11;7.10;;;3.50;;
16954;SDS011;8594;52.052;8.354;2024-02-26T01:59:40;5.07;;;4.10;;
16954;SDS011;8594;52.052;8.354;2024-02-26T02:02:08;6.10;;;3.97;;
16954;SDS011;8594;52.052;8.354;2024-02-26T02:04:38;6.73;;;4.63;;
16954;SDS011;8594;52.052;8.354;2024-02-26T02:07:06;8.27;;;4.97;;
16954;SDS011;8594;52.052;8.354;2024-02-26T02:09:33;10.10;;;5.30;;
16954;SDS011;8594;52.052;8.354;2024-02-26T02:11:59;7.17;;;5.43;;
16954;SDS011;8594;52.052;8.354;2024-02-26T02:14:27;8.63;;;5.40;;
16954;SDS011;8594;52.052;8.354;2024-02-26T02:16:54;9.87;;;5.73;;
16954;SDS011;8594;52.052;8.354;2024-02-26T02:19:22;10.90;;;5.93;;
16954;SDS011;8594;52.052;8.354;2024-02-26T02:21:50;9.40;;;6.03;;
16954;SDS011;8594;52.052;8.354;2024-02-26T02:24:16;11.70;;;6.63;;
16954;SDS011;8594;52.052;8.354;2024-02-26T02:26:43;11.80;;;6.50;;
16954;SDS011;8594;52.052;8.354;2024-02-26T02:29:10;9.93;;;6.30;;
16954;SDS011;8594;52.052;8.354;2024-02-26T02:31:38;11.10;;;6.33;;
16954;SDS011;8594;52.052;8.354;2024-02-26T02:34:05;9.67;;;5.33;;
16954;SDS011;8594;52.052;8.354;2024-02-26T02:36:32;8.23;;;4.80;;
16954;SDS011;8594;52.052;8.354;2024-02-26T02:39:00;7.97;;;4.60;;
16954;SDS011;8594;52.052;8.354;2024-02-26T02:41:28;7.67;;;4.50;;
16954;SDS011;8594;52.052;8.354;2024-02-26T02:43:55;9.83;;;4.50;;
16954;SDS011;8594;52.052;8.354;2024-02-26T02:46:22;4.77;;;3.70;;
16954;SDS011;8594;52.052;8.354;2024-02-26T02:48:49;8.60;;;3.63;;
16954;SDS011;8594;52.052;8.354;2024-02-26T02:51:16;4.07;;;3.27;;
16954;SDS011;8594;52.052;8.354;2024-02-26T02:53:42;5.40;;;3.63;;
16954;SDS011;8594;52.052;8.354;2024-02-26T02:56:10;7.43;;;3.57;;
16954;SDS011;8594;52.052;8.354;2024-02-26T02:58:37;8.40;;;4.20;;
16954;SDS011;8594;52.052;8.354;2024-02-26T03:01:04;5.07;;;3.93;;
16954;SDS011;8594;52.052;8.354;2024-02-26T03:03:30;4.83;;;3.97;;
16954;SDS011;8594;52.052;8.354;2024-02-26T03:05:57;6.07;;;4.07;;
16954;SDS011;8594;52.052;8.354;2024-02-26T03:08:24;6.63;;;4.43;;
16954;SDS011;8594;52.052;8.354;2024-02-26T03:10:51;6.27;;;4.10;;
16954;SDS011;8594;52.052;8.354;2024-02-26T03:13:19;6.30;;;4.30;;
16954;SDS011;8594;52.052;8.354;2024-02-26T03:15:46;6.83;;;4.30;;
16954;SDS011;8594;52.052;8.354;2024-02-26T03:18:13;7.63;;;3.57;;
16954;SDS011;8594;52.052;8.354;2024-02-26T03:20:39;5.37;;;3.33;;
16954;SDS011;8594;52.052;8.354;2024-02-26T03:23:06;5.43;;;3.20;;
16954;SDS011;8594;52.052;8.354;2024-02-26T03:25:36;6.33;;;3.50;;
16954;SDS011;8594;52.052;8.354;2024-02-26T03:28:03;4.27;;;2.83;;
16954;SDS011;8594;52.052;8.354;2024-02-26T03:30:32;5.67;;;2.60;;
16954;SDS011;8594;52.052;8.354;2024-02-26T03:32:59;3.90;;;3.00;;
16954;SDS011;8594;52.052;8.354;2024-02-26T03:35:26;4.37;;;2.50;;
16954;SDS011;8594;52.052;8.354;2024-02-26T03:37:52;2.90;;;2.20;;
16954;SDS011;8594;52.052;8.354;2024-02-26T03:40:19;3.53;;;2.40;;
16954;SDS011;8594;52.052;8.354;2024-02-26T03:42:46;3.00;;;2.13;;
16954;SDS011;8594;52.052;8.354;2024-02-26T03:45:13;5.03;;;2.77;;
16954;SDS011;8594;52.052;8.354;2024-02-26T03:47:41;4.77;;;2.30;;
16954;SDS011;8594;52.052;8.354;2024-02-26T03:50:09;3.57;;;2.73;;
16954;SDS011;8594;52.052;8.354;2024-02-26T03:52:36;5.60;;;2.60;;
16954;SDS011;8594;52.052;8.354;2024-02-26T03:55:03;2.40;;;2.10;;
16954;SDS011;8594;52.052;8.354;2024-02-26T03:57:30;2.67;;;1.90;;
16954;SDS011;8594;52.052;8.354;2024-02-26T03:59:57;3.00;;;2.20;;
16954;SDS011;8594;52.052;8.354;2024-02-26T04:02:23;2.30;;;2.10;;
16954;SDS011;8594;52.052;8.354;2024-02-26T04:04:51;3.00;;;2.10;;
16954;SDS011;8594;52.052;8.354;2024-02-26T04:07:18;4.03;;;2.23;;
16954;SDS011;8594;52.052;8.354;2024-02-26T04:09:45;5.43;;;2.30;;
16954;SDS011;8594;52.052;8.354;2024-02-26T04:12:12;3.50;;;2.17;;
16954;SDS011;8594;52.052;8.354;2024-02-26T04:14:39;4.07;;;2.47;;
16954;SDS011;8594;52.052;8.354;2024-02-26T04:17:06;4.90;;;2.57;;
16954;SDS011;8594;52.052;8.354;2024-02-26T04:19:32;2.97;;;2.53;;
16954;SDS011;8594;52.052;8.354;2024-02-26T04:22:01;5.10;;;2.60;;
16954;SDS011;8594;52.052;8.354;2024-02-26T04:24:28;3.47;;;2.23;;
16954;SDS011;8594;52.052;8.354;2024-02-26T04:26:55;5.30;;;2.40;;
16954;SDS011;8594;52.052;8.354;2024-02-26T04:29:21;3.57;;;2.50;;
16954;SDS011;8594;52.052;8.354;2024-02-26T04:31:48;4.03;;;2.23;;
16954;SDS011;8594;52.052;8.354;2024-02-26T04:34:15;6.93;;;2.27;;
16954;SDS011;8594;52.052;8.354;2024-02-26T04:36:42;4.03;;;2.30;;
16954;SDS011;8594;52.052;8.354;2024-02-26T04:39:10;4.17;;;2.43;;
16954;SDS011;8594;52.052;8.354;2024-02-26T04:41:37;4.37;;;2.30;;
16954;SDS011;8594;52.052;8.354;2024-02-26T04:44:04;3.97;;;2.50;;
16954;SDS011;8594;52.052;8.354;2024-02-26T04:46:31;4.63;;;3.13;;
16954;SDS011;8594;52.052;8.354;2024-02-26T04:48:57;3.27;;;2.27;;
16954;SDS011;8594;52.052;8.354;2024-02-26T04:51:24;3.40;;;2.60;;
16954;SDS011;8594;52.052;8.354;2024-02-26T04:53:51;2.93;;;2.37;;
16954;SDS011;8594;52.052;8.354;2024-02-26T04:56:19;4.67;;;1.90;;
16954;SDS011;8594;52.052;8.354;2024-02-26T04:58:46;4.43;;;2.20;;
16954;SDS011;8594;52.052;8.354;2024-02-26T05:01:14;2.70;;;2.30;;
16954;SDS011;8594;52.052;8.354;2024-02-26T05:03:42;4.10;;;2.50;;
16954;SDS011;8594;52.052;8.354;2024-02-26T05:06:09;3.77;;;2.43;;
16954;SDS011;8594;52.052;8.354;2024-02-26T05:08:36;3.47;;;2.30;;
16954;SDS011;8594;52.052;8.354;2024-02-26T05:11:03;3.33;;;2.37;;
16954;SDS011;8594;52.052;8.354;2024-02-26T05:13:32;4.00;;;2.47;;
16954;SDS011;8594;52.052;8.354;2024-02-26T05:15:59;4.07;;;2.27;;
16954;SDS011;8594;52.052;8.354;2024-02-26T05:18:26;3.90;;;2.40;;
16954;SDS011;8594;52.052;8.354;2024-02-26T05:20:54;4.03;;;2.70;;
16954;SDS011;8594;52.052;8.354;2024-02-26T05:23:20;3.97;;;2.80;;
16954;SDS011;8594;52.052;8.354;2024-02-26T05:25:48;3.47;;;2.40;;
16954;SDS011;8594;52.052;8.354;2024-02-26T05:28:15;3.83;;;2.37;;
16954;SDS011;8594;52.052;8.354;2024-02-26T05:30:44;2.80;;;2.33;;
16954;SDS011;8594;52.052;8.354;2024-02-26T05:33:11;3.70;;;2.43;;
16954;SDS011;8594;52.052;8.354;2024-02-26T05:35:38;3.70;;;2.60;;
16954;SDS011;8594;52.052;8.354;2024-02-26T05:38:06;6.00;;;2.67;;
16954;SDS011;8594;52.052;8.354;2024-02-26T05:40:32;3.33;;;2.90;;
16954;SDS011;8594;52.052;8.354;2024-02-26T05:42:59;3.47;;;2.20;;
16954;SDS011;8594;52.052;8.354;2024-02-26T05:45:26;6.03;;;2.10;;
16954;SDS011;8594;52.052;8.354;2024-02-26T05:47:54;4.63;;;2.73;;
16954;SDS011;8594;52.052;8.354;2024-02-26T05:50:21;3.30;;;2.20;;
16954;SDS011;8594;52.052;8.354;2024-02-26T05:52:47;3.10;;;2.50;;
16954;SDS011;8594;52.052;8.354;2024-02-26T05:55:14;3.37;;;2.50;;
16954;SDS011;8594;52.052;8.354;2024-02-26T05:57:41;9.93;;;4.80;;
16954;SDS011;8594;52.052;8.354;2024-02-26T06:00:08;3.20;;;2.43;;
16954;SDS011;8594;52.052;8.354;2024-02-26T06:02:37;3.00;;;2.30;;
16954;SDS011;8594;52.052;8.354;2024-02-26T06:05:06;4.17;;;2.77;;
16954;SDS011;8594;52.052;8.354;2024-02-26T06:07:33;3.20;;;2.70;;
16954;SDS011;8594;52.052;8.354;2024-02-26T06:10:00;4.20;;;2.70;;
16954;SDS011;8594;52.052;8.354;2024-02-26T06:12:29;5.13;;;2.97;;
16954;SDS011;8594;52.052;8.354;2024-02-26T06:14:56;3.30;;;2.60;;
16954;SDS011;8594;52.052;8.354;2024-02-26T06:17:26;10.47;;;3.97;;
16954;SDS011;8594;52.052;8.354;2024-02-26T06:19:53;3.03;;;2.73;;
16954;SDS011;8594;52.052;8.354;2024-02-26T06:22:21;5.73;;;3.47;;
16954;SDS011;8594;52.052;8.354;2024-02-26T06:24:48;6.63;;;3.33;;
16954;SDS011;8594;52.052;8.354;2024-02-26T06:27:15;5.13;;;3.53;;
16954;SDS011;8594;52.052;8.354;2024-02-26T06:29:41;4.97;;;3.20;;
16954;SDS011;8594;52.052;8.354;2024-02-26T06:32:08;7.30;;;3.53;;
16954;SDS011;8594;52.052;8.354;2024-02-26T06:34:35;5.23;;;3.57;;
16954;SDS011;8594;52.052;8.354;2024-02-26T06:37:03;9.53;;;3.73;;
16954;SDS011;8594;52.052;8.354;2024-02-26T06:39:31;4.57;;;3.60;;
16954;SDS011;8594;52.052;8.354;2024-02-26T06:41:58;10.47;;;3.93;;
16954;SDS011;8594;52.052;8.354;2024-02-26T06:44:26;5.00;;;3.30;;
16954;SDS011;8594;52.052;8.354;2024-02-26T06:46:56;5.43;;;3.77;;
16954;SDS011;8594;52.052;8.354;2024-02-26T06:49:24;5.97;;;3.43;;
16954;SDS011;8594;52.052;8.354;2024-02-26T06:51:51;6.93;;;4.07;;
16954;SDS011;8594;52.052;8.354;2024-02-26T06:54:18;5.03;;;3.20;;
16954;SDS011;8594;52.052;8.354;2024-02-26T06:56:46;6.37;;;3.60;;
16954;SDS011;8594;52.052;8.354;2024-02-26T06:59:13;7.27;;;3.70;;
16954;SDS011;8594;52.052;8.354;2024-02-26T07:01:40;4.67;;;3.23;;
16954;SDS011;8594;52.052;8.354;2024-02-26T07:04:07;6.37;;;3.67;;
16954;SDS011;8594;52.052;8.354;2024-02-26T07:06:35;7.17;;;3.60;;
16954;SDS011;8594;52.052;8.354;2024-02-26T07:09:03;7.53;;;4.20;;
16954;SDS011;8594;52.052;8.354;2024-02-26T07:11:29;8.53;;;4.37;;
16954;SDS011;8594;52.052;8.354;2024-02-26T07:13:57;6.50;;;4.37;;
16954;SDS011;8594;52.052;8.354;2024-02-26T07:16:26;14.53;;;4.10;;
16954;SDS011;8594;52.052;8.354;2024-02-26T07:18:53;6.73;;;4.33;;
16954;SDS011;8594;52.052;8.354;2024-02-26T07:21:19;5.93;;;4.50;;
16954;SDS011;8594;52.052;8.354;2024-02-26T07:23:46;10.07;;;4.73;;
16954;SDS011;8594;52.052;8.354;2024-02-26T07:26:13;10.40;;;4.83;;
16954;SDS011;8594;52.052;8.354;2024-02-26T07:28:40;8.13;;;4.50;;
16954;SDS011;8594;52.052;8.354;2024-02-26T07:31:08;9.63;;;5.20;;
16954;SDS011;8594;52.052;8.354;2024-02-26T07:33:34;8.97;;;5.57;;
16954;SDS011;8594;52.052;8.354;2024-02-26T07:36:01;9.40;;;5.90;;
16954;SDS011;8594;52.052;8.354;2024-02-26T07:38:28;9.63;;;5.23;;
16954;SDS011;8594;52.052;8.354;2024-02-26T07:40:56;12.67;;;5.57;;
16954;SDS011;8594;52.052;8.354;2024-02-26T07:43:23;10.83;;;5.70;;
16954;SDS011;8594;52.052;8.354;2024-02-26T07:45:49;8.97;;;5.80;;
16954;SDS011;8594;52.052;8.354;2024-02-26T07:48:17;12.57;;;5.80;;
16954;SDS011;8594;52.052;8.354;2024-02-26T07:50:44;11.10;;;6.07;;
16954;SDS011;8594;52.052;8.354;2024-02-26T07:53:11;11.30;;;6.13;;
16954;SDS011;8594;52.052;8.354;2024-02-26T07:55:38;11.97;;;6.50;;
16954;SDS011;8594;52.052;8.354;2024-02-26T07:58:04;8.90;;;5.17;;
16954;SDS011;8594;52.052;8.354;2024-02-26T08:00:31;10.60;;;6.33;;
16954;SDS011;8594;52.052;8.354;2024-02-26T08:02:58;9.53;;;5.83;;
16954;SDS011;8594;52.052;8.354;2024-02-26T08:05:26;10.73;;;6.07;;
16954;SDS011;8594;52.052;8.354;2024-02-26T08:07:52;9.70;;;5.90;;
16954;SDS011;8594;52.052;8.354;2024-02-26T08:10:19;11.50;;;6.57;;
16954;SDS011;8594;52.052;8.354;2024-02-26T08:12:46;12.63;;;7.07;;
16954;SDS011;8594;52.052;8.354;2024-02-26T08:15:13;12.47;;;6.67;;
16954;SDS011;8594;52.052;8.354;2024-02-26T08:17:40;10.00;;;6.43;;
16954;SDS011;8594;52.052;8.354;2024-02-26T08:20:07;11.60;;;5.87;;
16954;SDS011;8594;52.052;8.354;2024-02-26T08:22:36;10.37;;;6.00;;
16954;SDS011;8594;52.052;8.354;2024-02-26T08:25:04;9.40;;;6.33;;
16954;SDS011;8594;52.052;8.354;2024-02-26T08:27:34;11.20;;;6.17;;
16954;SDS011;8594;52.052;8.354;2024-02-26T08:30:00;14.70;;;5.93;;
16954;SDS011;8594;52.052;8.354;2024-02-26T08:32:27;12.20;;;6.87;;
16954;SDS011;8594;52.052;8.354;2024-02-26T08:34:54;10.33;;;6.40;;
16954;SDS011;8594;52.052;8.354;2024-02-26T08:37:21;9.60;;;6.17;;
16954;SDS011;8594;52.052;8.354;2024-02-26T08:39:49;14.63;;;6.73;;
16954;SDS011;8594;52.052;8.354;2024-02-26T08:42:15;12.80;;;6.37;;
16954;SDS011;8594;52.052;8.354;2024-02-26T08:44:42;11.30;;;6.70;;
16954;SDS011;8594;52.052;8.354;2024-02-26T08:47:09;11.63;;;6.40;;
16954;SDS011;8594;52.052;8.354;2024-02-26T08:49:35;13.50;;;7.10;;
16954;SDS011;8594;52.052;8.354;2024-02-26T08:52:04;9.93;;;6.07;;
16954;SDS011;8594;52.052;8.354;2024-02-26T08:54:31;11.53;;;6.33;;
16954;SDS011;8594;52.052;8.354;2024-02-26T08:56:59;9.73;;;6.27;;
16954;SDS011;8594;52.052;8.354;2024-02-26T08:59:26;12.23;;;7.23;;
16954;SDS011;8594;52.052;8.354;2024-02-26T09:01:52;13.37;;;7.27;;
16954;SDS011;8594;52.052;8.354;2024-02-26T09:04:19;13.17;;;7.33;;
16954;SDS011;8594;52.052;8.354;2024-02-26T09:06:46;13.67;;;7.00;;
16954;SDS011;8594;52.052;8.354;2024-02-26T09:09:14;10.83;;;6.50;;
16954;SDS011;8594;52.052;8.354;2024-02-26T09:11:40;14.43;;;6.40;;
16954;SDS011;8594;52.052;8.354;2024-02-26T09:14:08;11.90;;;6.60;;
16954;SDS011;8594;52.052;8.354;2024-02-26T09:16:35;10.40;;;6.40;;
16954;SDS011;8594;52.052;8.354;2024-02-26T09:19:02;12.13;;;6.53;;
16954;SDS011;8594;52.052;8.354;2024-02-26T09:21:29;10.33;;;6.10;;
16954;SDS011;8594;52.052;8.354;2024-02-26T09:23:55;11.97;;;6.33;;
16954;SDS011;8594;52.052;8.354;2024-02-26T09:26:22;10.53;;;6.20;;
16954;SDS011;8594;52.052;8.354;2024-02-26T09:28:49;9.67;;;6.30;;
16954;SDS011;8594;52.052;8.354;2024-02-26T09:31:17;11.20;;;6.80;;
16954;SDS011;8594;52.052;8.354;2024-02-26T09:33:44;10.43;;;5.93;;
16954;SDS011;8594;52.052;8.354;2024-02-26T09:36:11;10.30;;;5.60;;
16954;SDS011;8594;52.052;8.354;2024-02-26T09:38:38;9.97;;;6.23;;
16954;SDS011;8594;52.052;8.354;2024-02-26T09:41:05;11.63;;;5.70;;
16954;SDS011;8594;52.052;8.354;2024-02-26T09:43:34;11.23;;;6.13;;
16954;SDS011;8594;52.052;8.354;2024-02-26T09:46:03;12.30;;;5.50;;
16954;SDS011;8594;52.052;8.354;2024-02-26T09:48:31;9.47;;;6.13;;
16954;SDS011;8594;52.052;8.354;2024-02-26T09:51:01;9.47;;;5.17;;
16954;SDS011;8594;52.052;8.354;2024-02-26T09:53:29;9.03;;;5.50;;
16954;SDS011;8594;52.052;8.354;2024-02-26T09:55:57;8.87;;;5.57;;
16954;SDS011;8594;52.052;8.354;2024-02-26T09:58:24;10.43;;;5.67;;
16954;SDS011;8594;52.052;8.354;2024-02-26T10:00:55;8.83;;;5.13;;
16954;SDS011;8594;52.052;8.354;2024-02-26T10:03:25;7.93;;;4.87;;
16954;SDS011;8594;52.052;8.354;2024-02-26T10:06:05;7.17;;;5.07;;
16954;SDS011;8594;52.052;8.354;2024-02-26T10:08:33;7.57;;;5.47;;
16954;SDS011;8594;52.052;8.354;2024-02-26T10:11:02;10.23;;;4.97;;
16954;SDS011;8594;52.052;8.354;2024-02-26T10:13:30;8.43;;;5.10;;
16954;SDS011;8594;52.052;8.354;2024-02-26T10:15:56;10.87;;;5.23;;
16954;SDS011;8594;52.052;8.354;2024-02-26T10:18:23;8.90;;;5.37;;
16954;SDS011;8594;52.052;8.354;2024-02-26T10:21:01;10.07;;;5.70;;
16954;SDS011;8594;52.052;8.354;2024-02-26T10:23:28;8.97;;;5.70;;
16954;SDS011;8594;52.052;8.354;2024-02-26T10:25:55;7.70;;;5.07;;
16954;SDS011;8594;52.052;8.354;2024-02-26T10:28:22;10.13;;;5.23;;
16954;SDS011;8594;52.052;8.354;2024-02-26T10:30:50;8.77;;;5.87;;
16954;SDS011;8594;52.052;8.354;2024-02-26T10:33:17;9.53;;;5.50;;
16954;SDS011;8594;52.052;8.354;2024-02-26T10:35:45;9.37;;;5.60;;
16954;SDS011;8594;52.052;8.354;2024-02-26T10:38:13;12.20;;;5.80;;
16954;SDS011;8594;52.052;8.354;2024-02-26T10:40:45;8.00;;;5.13;;
16954;SDS011;8594;52.052;8.354;2024-02-26T10:43:11;8.90;;;5.37;;
16954;SDS011;8594;52.052;8.354;2024-02-26T10:45:39;11.10;;;5.37;;
16954;SDS011;8594;52.052;8.354;2024-02-26T10:48:09;15.23;;;5.30;;
16954;SDS011;8594;52.052;8.354;2024-02-26T10:50:37;6.70;;;4.40;;
16954;SDS011;8594;52.052;8.354;2024-02-26T10:53:05;9.00;;;4.80;;
16954;SDS011;8594;52.052;8.354;2024-02-26T10:55:45;7.77;;;4.53;;
16954;SDS011;8594;52.052;8.354;2024-02-26T10:58:14;6.90;;;4.70;;
16954;SDS011;8594;52.052;8.354;2024-02-26T11:00:43;8.87;;;5.40;;
16954;SDS011;8594;52.052;8.354;2024-02-26T11:03:12;8.20;;;4.67;;
16954;SDS011;8594;52.052;8.354;2024-02-26T11:05:41;8.53;;;5.03;;
16954;SDS011;8594;52.052;8.354;2024-02-26T11:08:09;8.43;;;5.07;;
16954;SDS011;8594;52.052;8.354;2024-02-26T11:10:38;9.30;;;4.87;;
16954;SDS011;8594;52.052;8.354;2024-02-26T11:13:09;12.13;;;4.90;;
16954;SDS011;8594;52.052;8.354;2024-02-26T11:15:39;6.10;;;4.23;;
16954;SDS011;8594;52.052;8.354;2024-02-26T11:18:07;6.87;;;4.03;;
16954;SDS011;8594;52.052;8.354;2024-02-26T11:20:34;10.00;;;5.00;;
16954;SDS011;8594;52.052;8.354;2024-02-26T11:23:06;6.60;;;4.73;;
16954;SDS011;8594;52.052;8.354;2024-02-26T11:25:34;8.00;;;4.17;;
16954;SDS011;8594;52.052;8.354;2024-02-26T11:28:04;9.17;;;4.30;;
16954;SDS011;8594;52.052;8.354;2024-02-26T11:30:37;8.13;;;4.53;;
16954;SDS011;8594;52.052;8.354;2024-02-26T11:33:10;8.63;;;4.13;;
16954;SDS011;8594;52.052;8.354;2024-02-26T11:35:38;7.87;;;4.60;;
16954;SDS011;8594;52.052;8.354;2024-02-26T11:38:06;6.63;;;4.40;;
16954;SDS011;8594;52.052;8.354;2024-02-26T11:40:33;7.70;;;4.80;;
16954;SDS011;8594;52.052;8.354;2024-02-26T11:43:07;5.87;;;4.77;;
16954;SDS011;8594;52.052;8.354;2024-02-26T11:45:49;6.27;;;4.43;;
16954;SDS011;8594;52.052;8.354;2024-02-26T11:48:21;7.43;;;4.77;;
16954;SDS011;8594;52.052;8.354;2024-02-26T11:50:50;7.00;;;4.70;;
16954;SDS011;8594;52.052;8.354;2024-02-26T11:53:19;10.23;;;5.10;;
16954;SDS011;8594;52.052;8.354;2024-02-26T11:55:47;10.50;;;5.23;;
16954;SDS011;8594;52.052;8.354;2024-02-26T11:58:16;8.33;;;4.97;;
16954;SDS011;8594;52.052;8.354;2024-02-26T12:00:42;7.77;;;4.57;;
16954;SDS011;8594;52.052;8.354;2024-02-26T12:03:09;8.13;;;4.93;;
16954;SDS011;8594;52.052;8.354;2024-02-26T12:05:37;6.73;;;5.10;;
16954;SDS011;8594;52.052;8.354;2024-02-26T12:08:05;5.90;;;4.63;;
16954;SDS011;8594;52.052;8.354;2024-02-26T12:10:35;7.77;;;5.00;;
16954;SDS011;8594;52.052;8.354;2024-02-26T12:13:07;10.87;;;6.33;;
16954;SDS011;8594;52.052;8.354;2024-02-26T12:15:39;8.03;;;4.97;;
16954;SDS011;8594;52.052;8.354;2024-02-26T12:18:08;7.30;;;4.77;;
16954;SDS011;8594;52.052;8.354;2024-02-26T12:20:41;9.37;;;4.97;;
16954;SDS011;8594;52.052;8.354;2024-02-26T12:23:09;7.27;;;4.07;;
16954;SDS011;8594;52.052;8.354;2024-02-26T12:25:41;8.03;;;4.30;;
16954;SDS011;8594;52.052;8.354;2024-02-26T12:28:09;6.43;;;4.30;;
16954;SDS011;8594;52.052;8.354;2024-02-26T12:30:35;5.57;;;4.13;;
16954;SDS011;8594;52.052;8.354;2024-02-26T12:33:04;6.37;;;4.03;;
16954;SDS011;8594;52.052;8.354;2024-02-26T12:35:33;6.13;;;4.40;;
16954;SDS011;8594;52.052;8.354;2024-02-26T12:38:01;8.03;;;4.43;;
16954;SDS011;8594;52.052;8.354;2024-02-26T12:40:30;7.20;;;4.00;;
16954;SDS011;8594;52.052;8.354;2024-02-26T12:42:57;6.07;;;3.70;;
16954;SDS011;8594;52.052;8.354;2024-02-26T12:45:25;5.13;;;3.53;;
16954;SDS011;8594;52.052;8.354;2024-02-26T12:47:53;5.67;;;3.67;;
16954;SDS011;8594;52.052;8.354;2024-02-26T12:50:21;6.27;;;3.73;;
16954;SDS011;8594;52.052;8.354;2024-02-26T12:52:48;5.77;;;3.50;;
16954;SDS011;8594;52.052;8.354;2024-02-26T12:55:18;6.10;;;3.63;;
16954;SDS011;8594;52.052;8.354;2024-02-26T12:57:46;5.60;;;3.50;;
16954;SDS011;8594;52.052;8.354;2024-02-26T13:00:15;6.47;;;4.10;;
16954;SDS011;8594;52.052;8.354;2024-02-26T13:02:47;6.53;;;3.97;;
16954;SDS011;8594;52.052;8.354;2024-02-26T13:05:16;4.67;;;3.30;;
16954;SDS011;8594;52.052;8.354;2024-02-26T13:07:47;7.30;;;3.80;;
16954;SDS011;8594;52.052;8.354;2024-02-26T13:10:14;5.60;;;3.40;;
16954;SDS011;8594;52.052;8.354;2024-02-26T13:12:43;6.40;;;3.33;;
16954;SDS011;8594;52.052;8.354;2024-02-26T13:15:13;5.50;;;3.33;;
16954;SDS011;8594;52.052;8.354;2024-02-26T13:17:42;5.13;;;3.57;;
16954;SDS011;8594;52.052;8.354;2024-02-26T13:20:09;5.27;;;3.40;;
16954;SDS011;8594;52.052;8.354;2024-02-26T13:22:36;8.70;;;3.97;;
16954;SDS011;8594;52.052;8.354;2024-02-26T13:25:05;7.23;;;3.30;;
16954;SDS011;8594;52.052;8.354;2024-02-26T13:27:33;5.93;;;3.80;;
16954;SDS011;8594;52.052;8.354;2024-02-26T13:30:03;4.30;;;3.40;;
16954;SDS011;8594;52.052;8.354;2024-02-26T13:32:35;7.17;;;3.53;;
16954;SDS011;8594;52.052;8.354;2024-02-26T13:35:07;6.10;;;3.43;;
16954;SDS011;8594;52.052;8.354;2024-02-26T13:37:35;6.27;;;3.67;;
16954;SDS011;8594;52.052;8.354;2024-02-26T13:40:07;6.17;;;5.20;;
16954;SDS011;8594;52.052;8.354;2024-02-26T13:42:35;9.93;;;3.90;;
16954;SDS011;8594;52.052;8.354;2024-02-26T13:45:03;5.90;;;3.60;;
16954;SDS011;8594;52.052;8.354;2024-02-26T13:47:32;7.07;;;3.77;;
16954;SDS011;8594;52.052;8.354;2024-02-26T13:49:59;6.07;;;3.30;;
16954;SDS011;8594;52.052;8.354;2024-02-26T13:52:26;5.67;;;4.03;;
16954;SDS011;8594;52.052;8.354;2024-02-26T13:54:53;4.37;;;3.10;;
16954;SDS011;8594;52.052;8.354;2024-02-26T13:57:21;4.93;;;3.33;;
16954;SDS011;8594;52.052;8.354;2024-02-26T13:59:48;4.23;;;2.90;;
16954;SDS011;8594;52.052;8.354;2024-02-26T14:02:16;4.00;;;3.10;;
16954;SDS011;8594;52.052;8.354;2024-02-26T14:04:43;5.87;;;3.50;;
16954;SDS011;8594;52.052;8.354;2024-02-26T14:07:10;6.13;;;3.50;;
16954;SDS011;8594;52.052;8.354;2024-02-26T14:09:38;4.03;;;3.37;;
16954;SDS011;8594;52.052;8.354;2024-02-26T14:12:05;5.60;;;3.10;;
16954;SDS011;8594;52.052;8.354;2024-02-26T14:14:33;4.73;;;3.40;;
16954;SDS011;8594;52.052;8.354;2024-02-26T14:17:03;4.20;;;3.00;;
16954;SDS011;8594;52.052;8.354;2024-02-26T14:19:30;4.77;;;3.10;;
16954;SDS011;8594;52.052;8.354;2024-02-26T14:21:57;6.03;;;3.00;;
16954;SDS011;8594;52.052;8.354;2024-02-26T14:24:24;3.47;;;2.70;;
16954;SDS011;8594;52.052;8.354;2024-02-26T14:26:50;4.07;;;2.83;;
16954;SDS011;8594;52.052;8.354;2024-02-26T14:29:18;3.73;;;2.93;;
16954;SDS011;8594;52.052;8.354;2024-02-26T14:31:46;4.17;;;3.33;;
16954;SDS011;8594;52.052;8.354;2024-02-26T14:34:12;4.37;;;3.20;;
16954;SDS011;8594;52.052;8.354;2024-02-26T14:36:39;5.63;;;3.00;;
16954;SDS011;8594;52.052;8.354;2024-02-26T14:39:06;5.17;;;2.83;;
16954;SDS011;8594;52.052;8.354;2024-02-26T14:41:36;4.17;;;3.20;;
16954;SDS011;8594;52.052;8.354;2024-02-26T14:44:02;5.37;;;3.57;;
16954;SDS011;8594;52.052;8.354;2024-02-26T14:46:29;6.17;;;3.00;;
16954;SDS011;8594;52.052;8.354;2024-02-26T14:48:57;4.37;;;3.17;;
16954;SDS011;8594;52.052;8.354;2024-02-26T14:51:24;4.27;;;3.13;;
16954;SDS011;8594;52.052;8.354;2024-02-26T14:53:51;6.13;;;3.10;;
16954;SDS011;8594;52.052;8.354;2024-02-26T14:56:18;5.50;;;3.10;;
16954;SDS011;8594;52.052;8.354;2024-02-26T14:58:45;6.03;;;2.83;;
16954;SDS011;8594;52.052;8.354;2024-02-26T15:01:11;3.80;;;2.80;;